map of LNZ home
LNZ - Airport
Location
City:  Linz, Oberösterreich (Upper Austria), Austria
Near (Alt.):Hörsching
Name:Blue Danube Airport Linz
ICAO:LOWL
IATA:LNZ

Details
Type:Airport (Flugplatz, Airfield)
Use:Public/Civil, Military, International (customs port of entry)
Latitude:48°14'00"N (48.233219)
Longitude:14°11'15"E (14.187511)
Datum:WGS 1984
Elevation:978 ft (298 m)
Variation:4.01°E (WMM2015v2 magnetic declination)
0.15° annual change
Runways:2
Longest:9843 × 197 ft (3000 × 60 m), paved

Time
Time Zone:UTC+1 (DST+2)
Local Time:

Weather
METAR:LOWL 041350Z VRB03KT 9999 FEW021 03/M03 Q1029 R08/29//95 NOSIG
TAF:LOWL 041115Z 0412/0512 27004KT 9999 FEW030 TX03/0413Z TNM06/0505Z
TEMPO 0422/0509 09003KT 3000 BR NSC PROB30 0503/0508 VRB01KT 0300 FZFG VV001

Related Locations
Nearby:
Farthest:CHT: 11842 mi / 19057 km
Waitangi [Tuuta], CIT, NZ

Find:

   beyond  
but within

Other Information
Maps:
NOTAMs:
Links:
Sources:

  
  • flag of Austria
  • flag of Oberösterreich (Upper Austria)
  

Sectional Chart

Flight Planning
at skyvector.com

Satellite Image

Google Maps Satellite view

 

Copyright © 2004-2019 Karl L. Swartz. All rights reserved.
The Great Circle Mapper name and logo are trademarks of the Great Circle Mapper.
All other trademarks mentioned herein belong to their respective owners.
Please see credits for attibutions and further copyright information.

  Follow gcmap on Facebook Follow gcmap on Twitter GCmap on LinkedIn

hCard Microformat

Geo Microformat